sensor_id;sensor_type;location;lat;lon;timestamp;P1;durP1;ratioP1;P2;durP2;ratioP2
52978;SDS011;63430;53.186;6.598;2023-04-21T00:00:45;26.85;;;16.95;;
52978;SDS011;63430;53.186;6.598;2023-04-21T00:02:49;16.55;;;13.98;;
52978;SDS011;63430;53.186;6.598;2023-04-21T00:04:53;17.15;;;14.75;;
52978;SDS011;63430;53.186;6.598;2023-04-21T00:09:05;14.18;;;12.40;;
52978;SDS011;63430;53.186;6.598;2023-04-21T00:11:22;17.60;;;15.77;;
52978;SDS011;63430;53.186;6.598;2023-04-21T00:13:24;25.05;;;21.52;;
52978;SDS011;63430;53.186;6.598;2023-04-21T00:15:27;14.98;;;13.35;;
52978;SDS011;63430;53.186;6.598;2023-04-21T00:17:35;17.80;;;16.20;;
52978;SDS011;63430;53.186;6.598;2023-04-21T00:19:38;15.40;;;13.48;;
52978;SDS011;63430;53.186;6.598;2023-04-21T00:21:42;20.27;;;12.98;;
52978;SDS011;63430;53.186;6.598;2023-04-21T00:23:46;16.63;;;13.98;;
52978;SDS011;63430;53.186;6.598;2023-04-21T00:25:50;15.15;;;13.07;;
52978;SDS011;63430;53.186;6.598;2023-04-21T00:27:54;23.25;;;20.65;;
52978;SDS011;63430;53.186;6.598;2023-04-21T00:29:57;18.42;;;15.23;;
52978;SDS011;63430;53.186;6.598;2023-04-21T00:32:03;18.17;;;16.38;;
52978;SDS011;63430;53.186;6.598;2023-04-21T00:34:12;18.00;;;15.95;;
52978;SDS011;63430;53.186;6.598;2023-04-21T00:36:15;23.35;;;19.95;;
52978;SDS011;63430;53.186;6.598;2023-04-21T00:38:18;17.63;;;15.52;;
52978;SDS011;63430;53.186;6.598;2023-04-21T00:40:21;16.15;;;14.52;;
52978;SDS011;63430;53.186;6.598;2023-04-21T00:42:26;20.85;;;15.68;;
52978;SDS011;63430;53.186;6.598;2023-04-21T00:44:29;17.27;;;15.48;;
52978;SDS011;63430;53.186;6.598;2023-04-21T00:46:32;17.75;;;13.90;;
52978;SDS011;63430;53.186;6.598;2023-04-21T00:48:35;15.02;;;13.48;;
52978;SDS011;63430;53.186;6.598;2023-04-21T00:50:42;16.90;;;15.20;;
52978;SDS011;63430;53.186;6.598;2023-04-21T00:52:45;13.90;;;12.50;;
52978;SDS011;63430;53.186;6.598;2023-04-21T00:54:53;20.42;;;15.55;;
52978;SDS011;63430;53.186;6.598;2023-04-21T00:56:59;18.38;;;15.65;;
52978;SDS011;63430;53.186;6.598;2023-04-21T00:59:06;16.27;;;14.07;;
52978;SDS011;63430;53.186;6.598;2023-04-21T01:01:09;18.42;;;16.63;;
52978;SDS011;63430;53.186;6.598;2023-04-21T01:03:12;19.42;;;17.02;;
52978;SDS011;63430;53.186;6.598;2023-04-21T01:05:20;17.80;;;13.25;;
52978;SDS011;63430;53.186;6.598;2023-04-21T01:07:26;19.83;;;15.83;;
52978;SDS011;63430;53.186;6.598;2023-04-21T01:09:30;22.88;;;16.25;;
52978;SDS011;63430;53.186;6.598;2023-04-21T01:11:58;20.40;;;16.00;;
52978;SDS011;63430;53.186;6.598;2023-04-21T01:14:03;17.23;;;13.85;;
52978;SDS011;63430;53.186;6.598;2023-04-21T01:16:06;16.63;;;13.77;;
52978;SDS011;63430;53.186;6.598;2023-04-21T01:18:11;17.98;;;15.32;;
52978;SDS011;63430;53.186;6.598;2023-04-21T01:20:15;16.87;;;14.30;;
52978;SDS011;63430;53.186;6.598;2023-04-21T01:22:22;21.42;;;19.23;;
52978;SDS011;63430;53.186;6.598;2023-04-21T01:26:38;16.67;;;14.00;;
52978;SDS011;63430;53.186;6.598;2023-04-21T01:28:41;22.35;;;15.38;;
52978;SDS011;63430;53.186;6.598;2023-04-21T01:30:44;20.50;;;15.45;;
52978;SDS011;63430;53.186;6.598;2023-04-21T01:32:46;21.67;;;19.50;;
52978;SDS011;63430;53.186;6.598;2023-04-21T01:34:55;19.20;;;16.02;;
52978;SDS011;63430;53.186;6.598;2023-04-21T01:36:58;16.58;;;14.75;;
52978;SDS011;63430;53.186;6.598;2023-04-21T01:39:04;36.50;;;30.17;;
52978;SDS011;63430;53.186;6.598;2023-04-21T01:41:09;19.33;;;17.27;;
52978;SDS011;63430;53.186;6.598;2023-04-21T01:43:11;32.28;;;29.15;;
52978;SDS011;63430;53.186;6.598;2023-04-21T01:45:15;22.38;;;19.27;;
52978;SDS011;63430;53.186;6.598;2023-04-21T01:47:18;31.42;;;28.73;;
52978;SDS011;63430;53.186;6.598;2023-04-21T01:49:21;28.85;;;22.55;;
52978;SDS011;63430;53.186;6.598;2023-04-21T01:51:24;34.85;;;31.83;;
52978;SDS011;63430;53.186;6.598;2023-04-21T01:53:31;22.52;;;20.23;;
52978;SDS011;63430;53.186;6.598;2023-04-21T01:55:38;31.65;;;19.90;;
52978;SDS011;63430;53.186;6.598;2023-04-21T01:57:42;28.98;;;15.63;;
52978;SDS011;63430;53.186;6.598;2023-04-21T01:59:46;26.43;;;24.23;;
52978;SDS011;63430;53.186;6.598;2023-04-21T02:01:50;19.05;;;17.23;;
52978;SDS011;63430;53.186;6.598;2023-04-21T02:03:53;18.10;;;13.20;;
52978;SDS011;63430;53.186;6.598;2023-04-21T02:05:56;19.25;;;14.13;;
52978;SDS011;63430;53.186;6.598;2023-04-21T02:07:59;17.52;;;13.30;;
52978;SDS011;63430;53.186;6.598;2023-04-21T02:10:02;20.75;;;14.40;;
52978;SDS011;63430;53.186;6.598;2023-04-21T02:12:08;18.98;;;15.60;;
52978;SDS011;63430;53.186;6.598;2023-04-21T02:14:16;17.10;;;14.95;;
52978;SDS011;63430;53.186;6.598;2023-04-21T02:16:18;28.92;;;26.10;;
52978;SDS011;63430;53.186;6.598;2023-04-21T02:18:22;16.77;;;14.30;;
52978;SDS011;63430;53.186;6.598;2023-04-21T02:20:25;17.40;;;14.57;;
52978;SDS011;63430;53.186;6.598;2023-04-21T02:22:27;18.58;;;16.75;;
52978;SDS011;63430;53.186;6.598;2023-04-21T02:24:30;19.02;;;14.25;;
52978;SDS011;63430;53.186;6.598;2023-04-21T02:26:33;21.50;;;14.40;;
52978;SDS011;63430;53.186;6.598;2023-04-21T02:28:38;17.20;;;15.60;;
52978;SDS011;63430;53.186;6.598;2023-04-21T02:30:41;19.65;;;15.10;;
52978;SDS011;63430;53.186;6.598;2023-04-21T02:32:44;18.98;;;17.05;;
52978;SDS011;63430;53.186;6.598;2023-04-21T02:34:47;19.13;;;13.52;;
52978;SDS011;63430;53.186;6.598;2023-04-21T02:36:50;18.40;;;14.00;;
52978;SDS011;63430;53.186;6.598;2023-04-21T02:38:53;19.83;;;16.65;;
52978;SDS011;63430;53.186;6.598;2023-04-21T02:40:56;21.42;;;19.40;;
52978;SDS011;63430;53.186;6.598;2023-04-21T02:42:59;21.00;;;19.08;;
52978;SDS011;63430;53.186;6.598;2023-04-21T02:45:05;15.48;;;13.65;;
52978;SDS011;63430;53.186;6.598;2023-04-21T02:47:09;18.27;;;14.27;;
52978;SDS011;63430;53.186;6.598;2023-04-21T02:49:15;15.00;;;13.55;;
52978;SDS011;63430;53.186;6.598;2023-04-21T02:51:18;16.58;;;13.63;;
52978;SDS011;63430;53.186;6.598;2023-04-21T02:53:21;25.05;;;23.00;;
52978;SDS011;63430;53.186;6.598;2023-04-21T02:55:26;24.05;;;19.33;;
52978;SDS011;63430;53.186;6.598;2023-04-21T02:57:29;20.17;;;18.23;;
52978;SDS011;63430;53.186;6.598;2023-04-21T02:59:33;22.58;;;20.55;;
52978;SDS011;63430;53.186;6.598;2023-04-21T03:01:40;18.13;;;14.65;;
52978;SDS011;63430;53.186;6.598;2023-04-21T03:03:43;23.17;;;21.17;;
52978;SDS011;63430;53.186;6.598;2023-04-21T03:05:47;20.23;;;18.53;;
52978;SDS011;63430;53.186;6.598;2023-04-21T03:07:51;20.73;;;18.27;;
52978;SDS011;63430;53.186;6.598;2023-04-21T03:09:54;19.17;;;14.45;;
52978;SDS011;63430;53.186;6.598;2023-04-21T03:11:57;18.85;;;17.05;;
52978;SDS011;63430;53.186;6.598;2023-04-21T03:13:59;16.35;;;14.05;;
52978;SDS011;63430;53.186;6.598;2023-04-21T03:16:03;21.65;;;18.33;;
52978;SDS011;63430;53.186;6.598;2023-04-21T03:18:11;17.60;;;15.93;;
52978;SDS011;63430;53.186;6.598;2023-04-21T03:20:15;23.25;;;21.05;;
52978;SDS011;63430;53.186;6.598;2023-04-21T03:22:20;21.02;;;18.77;;
52978;SDS011;63430;53.186;6.598;2023-04-21T03:24:23;36.10;;;32.85;;
52978;SDS011;63430;53.186;6.598;2023-04-21T03:26:26;21.77;;;19.02;;
52978;SDS011;63430;53.186;6.598;2023-04-21T03:28:29;20.08;;;16.08;;
52978;SDS011;63430;53.186;6.598;2023-04-21T03:30:31;16.63;;;15.02;;
52978;SDS011;63430;53.186;6.598;2023-04-21T03:32:34;22.40;;;17.48;;
52978;SDS011;63430;53.186;6.598;2023-04-21T03:34:42;23.95;;;22.02;;
52978;SDS011;63430;53.186;6.598;2023-04-21T03:36:45;20.08;;;17.75;;
52978;SDS011;63430;53.186;6.598;2023-04-21T03:38:51;16.20;;;14.50;;
52978;SDS011;63430;53.186;6.598;2023-04-21T03:40:55;20.50;;;18.55;;
52978;SDS011;63430;53.186;6.598;2023-04-21T03:42:58;16.67;;;14.93;;
52978;SDS011;63430;53.186;6.598;2023-04-21T03:45:08;18.88;;;17.00;;
52978;SDS011;63430;53.186;6.598;2023-04-21T03:47:11;18.35;;;16.25;;
52978;SDS011;63430;53.186;6.598;2023-04-21T03:49:14;20.25;;;18.35;;
52978;SDS011;63430;53.186;6.598;2023-04-21T03:51:19;18.67;;;14.98;;
52978;SDS011;63430;53.186;6.598;2023-04-21T03:53:22;20.50;;;18.65;;
52978;SDS011;63430;53.186;6.598;2023-04-21T03:55:25;20.20;;;18.30;;
52978;SDS011;63430;53.186;6.598;2023-04-21T03:57:30;22.05;;;16.48;;
52978;SDS011;63430;53.186;6.598;2023-04-21T03:59:33;19.23;;;14.23;;
52978;SDS011;63430;53.186;6.598;2023-04-21T04:01:35;18.95;;;17.02;;
52978;SDS011;63430;53.186;6.598;2023-04-21T04:03:39;22.35;;;20.50;;
52978;SDS011;63430;53.186;6.598;2023-04-21T04:05:44;32.85;;;24.30;;
52978;SDS011;63430;53.186;6.598;2023-04-21T04:07:49;22.10;;;20.05;;
52978;SDS011;63430;53.186;6.598;2023-04-21T04:09:52;23.00;;;20.90;;
52978;SDS011;63430;53.186;6.598;2023-04-21T04:11:55;23.13;;;21.35;;
52978;SDS011;63430;53.186;6.598;2023-04-21T04:13:58;22.35;;;20.38;;
52978;SDS011;63430;53.186;6.598;2023-04-21T04:16:01;15.82;;;13.82;;
52978;SDS011;63430;53.186;6.598;2023-04-21T04:18:05;16.23;;;14.57;;
52978;SDS011;63430;53.186;6.598;2023-04-21T04:20:11;27.08;;;24.88;;
52978;SDS011;63430;53.186;6.598;2023-04-21T04:22:14;21.05;;;19.08;;
52978;SDS011;63430;53.186;6.598;2023-04-21T04:24:21;20.70;;;18.77;;
52978;SDS011;63430;53.186;6.598;2023-04-21T04:26:24;29.23;;;26.80;;
52978;SDS011;63430;53.186;6.598;2023-04-21T04:28:26;25.70;;;23.30;;
52978;SDS011;63430;53.186;6.598;2023-04-21T04:30:30;19.80;;;18.13;;
52978;SDS011;63430;53.186;6.598;2023-04-21T04:32:37;18.73;;;16.92;;
52978;SDS011;63430;53.186;6.598;2023-04-21T04:34:43;23.42;;;21.45;;
52978;SDS011;63430;53.186;6.598;2023-04-21T04:36:49;16.05;;;14.35;;
52978;SDS011;63430;53.186;6.598;2023-04-21T04:38:52;17.20;;;15.60;;
52978;SDS011;63430;53.186;6.598;2023-04-21T04:40:58;18.58;;;16.70;;
52978;SDS011;63430;53.186;6.598;2023-04-21T04:43:03;18.30;;;14.10;;
52978;SDS011;63430;53.186;6.598;2023-04-21T04:45:11;18.33;;;15.40;;
52978;SDS011;63430;53.186;6.598;2023-04-21T04:47:14;31.55;;;25.20;;
52978;SDS011;63430;53.186;6.598;2023-04-21T04:49:19;19.58;;;14.95;;
52978;SDS011;63430;53.186;6.598;2023-04-21T04:51:28;16.55;;;14.82;;
52978;SDS011;63430;53.186;6.598;2023-04-21T04:53:31;15.90;;;13.57;;
52978;SDS011;63430;53.186;6.598;2023-04-21T04:55:36;20.17;;;18.27;;
52978;SDS011;63430;53.186;6.598;2023-04-21T04:57:41;18.27;;;14.65;;
52978;SDS011;63430;53.186;6.598;2023-04-21T04:59:44;14.95;;;13.48;;
52978;SDS011;63430;53.186;6.598;2023-04-21T05:01:47;17.67;;;14.00;;
52978;SDS011;63430;53.186;6.598;2023-04-21T05:04:12;17.70;;;15.77;;
52978;SDS011;63430;53.186;6.598;2023-04-21T05:06:38;17.25;;;13.50;;
52978;SDS011;63430;53.186;6.598;2023-04-21T05:08:43;18.73;;;17.05;;
52978;SDS011;63430;53.186;6.598;2023-04-21T05:10:47;16.67;;;15.13;;
52978;SDS011;63430;53.186;6.598;2023-04-21T05:12:52;20.73;;;15.25;;
52978;SDS011;63430;53.186;6.598;2023-04-21T05:14:54;15.95;;;13.30;;
52978;SDS011;63430;53.186;6.598;2023-04-21T05:16:57;18.15;;;16.48;;
52978;SDS011;63430;53.186;6.598;2023-04-21T05:19:00;16.52;;;13.10;;
52978;SDS011;63430;53.186;6.598;2023-04-21T05:21:07;19.52;;;13.90;;
52978;SDS011;63430;53.186;6.598;2023-04-21T05:23:11;15.13;;;13.45;;
52978;SDS011;63430;53.186;6.598;2023-04-21T05:25:14;18.23;;;16.50;;
52978;SDS011;63430;53.186;6.598;2023-04-21T05:27:21;18.67;;;16.88;;
52978;SDS011;63430;53.186;6.598;2023-04-21T05:29:29;17.92;;;16.15;;
52978;SDS011;63430;53.186;6.598;2023-04-21T05:31:35;19.55;;;17.23;;
52978;SDS011;63430;53.186;6.598;2023-04-21T05:33:39;15.23;;;13.75;;
52978;SDS011;63430;53.186;6.598;2023-04-21T05:35:42;14.80;;;12.45;;
52978;SDS011;63430;53.186;6.598;2023-04-21T05:37:45;19.40;;;17.75;;
52978;SDS011;63430;53.186;6.598;2023-04-21T05:39:47;18.45;;;16.85;;
52978;SDS011;63430;53.186;6.598;2023-04-21T05:41:50;14.75;;;13.32;;
52978;SDS011;63430;53.186;6.598;2023-04-21T05:43:52;15.35;;;13.32;;
52978;SDS011;63430;53.186;6.598;2023-04-21T05:45:58;21.80;;;19.63;;
52978;SDS011;63430;53.186;6.598;2023-04-21T05:48:01;16.48;;;11.80;;
52978;SDS011;63430;53.186;6.598;2023-04-21T05:50:04;18.85;;;14.40;;
52978;SDS011;63430;53.186;6.598;2023-04-21T05:52:08;20.52;;;12.25;;
52978;SDS011;63430;53.186;6.598;2023-04-21T05:54:11;15.40;;;13.80;;
52978;SDS011;63430;53.186;6.598;2023-04-21T05:56:14;26.70;;;24.05;;
52978;SDS011;63430;53.186;6.598;2023-04-21T05:58:16;15.75;;;13.45;;
52978;SDS011;63430;53.186;6.598;2023-04-21T06:00:22;16.35;;;14.73;;
52978;SDS011;63430;53.186;6.598;2023-04-21T06:02:27;16.42;;;14.98;;
52978;SDS011;63430;53.186;6.598;2023-04-21T06:04:30;14.40;;;12.15;;
52978;SDS011;63430;53.186;6.598;2023-04-21T06:06:33;37.90;;;34.47;;
52978;SDS011;63430;53.186;6.598;2023-04-21T06:08:36;14.07;;;12.02;;
52978;SDS011;63430;53.186;6.598;2023-04-21T06:10:42;15.50;;;13.13;;
52978;SDS011;63430;53.186;6.598;2023-04-21T06:12:45;12.45;;;11.32;;
52978;SDS011;63430;53.186;6.598;2023-04-21T06:14:47;18.08;;;16.13;;
52978;SDS011;63430;53.186;6.598;2023-04-21T06:16:50;16.63;;;13.82;;
52978;SDS011;63430;53.186;6.598;2023-04-21T06:18:55;16.35;;;12.25;;
52978;SDS011;63430;53.186;6.598;2023-04-21T06:20:59;14.13;;;12.63;;
52978;SDS011;63430;53.186;6.598;2023-04-21T06:23:02;21.13;;;18.58;;
52978;SDS011;63430;53.186;6.598;2023-04-21T06:25:10;20.35;;;18.10;;
52978;SDS011;63430;53.186;6.598;2023-04-21T06:27:15;18.20;;;15.20;;
52978;SDS011;63430;53.186;6.598;2023-04-21T06:29:18;13.80;;;12.45;;
52978;SDS011;63430;53.186;6.598;2023-04-21T06:31:21;12.40;;;10.77;;
52978;SDS011;63430;53.186;6.598;2023-04-21T06:33:24;16.70;;;12.43;;
52978;SDS011;63430;53.186;6.598;2023-04-21T06:35:30;49.35;;;45.92;;
52978;SDS011;63430;53.186;6.598;2023-04-21T06:37:33;17.30;;;15.90;;
52978;SDS011;63430;53.186;6.598;2023-04-21T06:39:35;17.50;;;13.27;;
52978;SDS011;63430;53.186;6.598;2023-04-21T06:41:38;16.00;;;12.23;;
52978;SDS011;63430;53.186;6.598;2023-04-21T06:43:40;43.22;;;39.15;;
52978;SDS011;63430;53.186;6.598;2023-04-21T06:45:43;14.57;;;12.32;;
52978;SDS011;63430;53.186;6.598;2023-04-21T06:47:45;26.20;;;24.23;;
52978;SDS011;63430;53.186;6.598;2023-04-21T06:49:49;23.73;;;21.98;;
52978;SDS011;63430;53.186;6.598;2023-04-21T06:51:55;23.95;;;21.92;;
52978;SDS011;63430;53.186;6.598;2023-04-21T06:53:57;19.50;;;14.30;;
52978;SDS011;63430;53.186;6.598;2023-04-21T06:56:00;26.92;;;24.73;;
52978;SDS011;63430;53.186;6.598;2023-04-21T06:58:05;16.60;;;12.90;;
52978;SDS011;63430;53.186;6.598;2023-04-21T07:00:08;18.23;;;16.73;;
52978;SDS011;63430;53.186;6.598;2023-04-21T07:02:13;18.65;;;17.20;;
52978;SDS011;63430;53.186;6.598;2023-04-21T07:04:16;21.00;;;19.38;;
52978;SDS011;63430;53.186;6.598;2023-04-21T07:06:21;23.48;;;21.20;;
52978;SDS011;63430;53.186;6.598;2023-04-21T07:08:26;22.83;;;20.77;;
52978;SDS011;63430;53.186;6.598;2023-04-21T07:10:29;21.08;;;18.98;;
52978;SDS011;63430;53.186;6.598;2023-04-21T07:12:32;23.98;;;18.00;;
52978;SDS011;63430;53.186;6.598;2023-04-21T07:14:35;27.75;;;25.63;;
52978;SDS011;63430;53.186;6.598;2023-04-21T07:16:37;20.65;;;18.63;;
52978;SDS011;63430;53.186;6.598;2023-04-21T07:18:40;17.80;;;16.38;;
52978;SDS011;63430;53.186;6.598;2023-04-21T07:20:43;23.08;;;21.05;;
52978;SDS011;63430;53.186;6.598;2023-04-21T07:22:45;25.73;;;23.45;;
52978;SDS011;63430;53.186;6.598;2023-04-21T07:24:51;20.00;;;18.25;;
52978;SDS011;63430;53.186;6.598;2023-04-21T07:26:55;16.67;;;12.77;;
52978;SDS011;63430;53.186;6.598;2023-04-21T07:28:59;15.90;;;14.40;;
52978;SDS011;63430;53.186;6.598;2023-04-21T07:31:02;16.48;;;13.30;;
52978;SDS011;63430;53.186;6.598;2023-04-21T07:33:05;13.98;;;12.05;;
52978;SDS011;63430;53.186;6.598;2023-04-21T07:35:07;17.88;;;16.13;;
52978;SDS011;63430;53.186;6.598;2023-04-21T07:37:10;17.30;;;15.93;;
52978;SDS011;63430;53.186;6.598;2023-04-21T07:39:13;17.48;;;15.73;;
52978;SDS011;63430;53.186;6.598;2023-04-21T07:41:18;26.63;;;24.63;;
52978;SDS011;63430;53.186;6.598;2023-04-21T07:43:24;19.77;;;18.05;;
52978;SDS011;63430;53.186;6.598;2023-04-21T07:45:29;16.52;;;14.43;;
52978;SDS011;63430;53.186;6.598;2023-04-21T07:47:31;21.92;;;16.65;;
52978;SDS011;63430;53.186;6.598;2023-04-21T07:49:36;27.60;;;25.50;;
52978;SDS011;63430;53.186;6.598;2023-04-21T07:51:39;22.40;;;20.60;;
52978;SDS011;63430;53.186;6.598;2023-04-21T07:53:45;13.88;;;12.13;;
52978;SDS011;63430;53.186;6.598;2023-04-21T07:55:47;16.27;;;14.55;;
52978;SDS011;63430;53.186;6.598;2023-04-21T07:57:54;12.60;;;10.93;;
52978;SDS011;63430;53.186;6.598;2023-04-21T07:59:57;19.80;;;18.20;;
52978;SDS011;63430;53.186;6.598;2023-04-21T08:02:13;17.88;;;16.15;;
52978;SDS011;63430;53.186;6.598;2023-04-21T08:04:15;14.15;;;12.68;;
52978;SDS011;63430;53.186;6.598;2023-04-21T08:06:18;31.80;;;29.25;;
52978;SDS011;63430;53.186;6.598;2023-04-21T08:08:22;21.70;;;19.85;;
52978;SDS011;63430;53.186;6.598;2023-04-21T08:10:25;22.85;;;20.95;;
52978;SDS011;63430;53.186;6.598;2023-04-21T08:12:28;22.60;;;20.88;;
52978;SDS011;63430;53.186;6.598;2023-04-21T08:14:33;17.80;;;16.00;;
52978;SDS011;63430;53.186;6.598;2023-04-21T08:16:36;17.35;;;15.90;;
52978;SDS011;63430;53.186;6.598;2023-04-21T08:18:39;23.63;;;21.63;;
52978;SDS011;63430;53.186;6.598;2023-04-21T08:20:42;16.10;;;14.73;;
52978;SDS011;63430;53.186;6.598;2023-04-21T08:22:44;19.17;;;17.45;;
52978;SDS011;63430;53.186;6.598;2023-04-21T08:24:49;12.82;;;11.45;;
52978;SDS011;63430;53.186;6.598;2023-04-21T08:26:54;17.75;;;16.17;;
52978;SDS011;63430;53.186;6.598;2023-04-21T08:28:59;16.58;;;14.82;;
52978;SDS011;63430;53.186;6.598;2023-04-21T08:31:07;26.02;;;23.65;;
52978;SDS011;63430;53.186;6.598;2023-04-21T08:33:10;23.27;;;21.15;;
52978;SDS011;63430;53.186;6.598;2023-04-21T08:35:16;21.55;;;17.38;;
52978;SDS011;63430;53.186;6.598;2023-04-21T08:37:18;17.00;;;15.40;;
52978;SDS011;63430;53.186;6.598;2023-04-21T08:39:22;18.05;;;16.55;;
52978;SDS011;63430;53.186;6.598;2023-04-21T08:41:26;16.67;;;15.00;;
52978;SDS011;63430;53.186;6.598;2023-04-21T08:45:32;15.88;;;12.95;;
52978;SDS011;63430;53.186;6.598;2023-04-21T08:47:39;20.58;;;18.65;;
52978;SDS011;63430;53.186;6.598;2023-04-21T08:49:42;19.67;;;18.05;;
52978;SDS011;63430;53.186;6.598;2023-04-21T08:51:47;24.80;;;22.70;;
52978;SDS011;63430;53.186;6.598;2023-04-21T08:53:50;21.50;;;19.38;;
52978;SDS011;63430;53.186;6.598;2023-04-21T08:55:53;14.13;;;12.73;;
52978;SDS011;63430;53.186;6.598;2023-04-21T08:58:11;20.92;;;19.25;;
52978;SDS011;63430;53.186;6.598;2023-04-21T09:00:14;13.85;;;10.10;;
52978;SDS011;63430;53.186;6.598;2023-04-21T09:02:20;16.55;;;14.82;;
52978;SDS011;63430;53.186;6.598;2023-04-21T09:04:28;31.30;;;29.10;;
52978;SDS011;63430;53.186;6.598;2023-04-21T09:06:38;34.65;;;31.85;;
52978;SDS011;63430;53.186;6.598;2023-04-21T09:08:51;19.65;;;17.98;;
52978;SDS011;63430;53.186;6.598;2023-04-21T09:10:59;14.70;;;13.15;;
52978;SDS011;63430;53.186;6.598;2023-04-21T09:15:10;12.20;;;11.00;;
52978;SDS011;63430;53.186;6.598;2023-04-21T09:17:14;10.95;;;8.73;;
52978;SDS011;63430;53.186;6.598;2023-04-21T09:19:21;15.80;;;14.18;;
52978;SDS011;63430;53.186;6.598;2023-04-21T09:21:28;12.40;;;8.77;;
52978;SDS011;63430;53.186;6.598;2023-04-21T09:23:38;17.38;;;15.15;;
52978;SDS011;63430;53.186;6.598;2023-04-21T09:25:43;17.38;;;15.10;;
52978;SDS011;63430;53.186;6.598;2023-04-21T09:27:46;12.73;;;10.55;;
52978;SDS011;63430;53.186;6.598;2023-04-21T09:29:49;10.40;;;8.57;;
52978;SDS011;63430;53.186;6.598;2023-04-21T09:31:52;14.90;;;9.50;;
52978;SDS011;63430;53.186;6.598;2023-04-21T09:33:56;14.77;;;13.43;;
52978;SDS011;63430;53.186;6.598;2023-04-21T09:36:02;24.27;;;17.48;;
52978;SDS011;63430;53.186;6.598;2023-04-21T09:38:11;15.82;;;13.18;;
52978;SDS011;63430;53.186;6.598;2023-04-21T09:40:13;10.88;;;9.73;;
52978;SDS011;63430;53.186;6.598;2023-04-21T09:42:19;14.32;;;10.35;;
52978;SDS011;63430;53.186;6.598;2023-04-21T09:44:30;33.13;;;31.08;;
52978;SDS011;63430;53.186;6.598;2023-04-21T09:46:56;12.85;;;11.57;;
52978;SDS011;63430;53.186;6.598;2023-04-21T09:49:06;15.65;;;9.52;;
52978;SDS011;63430;53.186;6.598;2023-04-21T09:51:15;15.45;;;9.30;;
52978;SDS011;63430;53.186;6.598;2023-04-21T09:53:23;34.38;;;31.70;;
52978;SDS011;63430;53.186;6.598;2023-04-21T09:55:30;60.17;;;56.58;;
52978;SDS011;63430;53.186;6.598;2023-04-21T09:59:39;32.20;;;29.83;;
52978;SDS011;63430;53.186;6.598;2023-04-21T10:01:46;15.73;;;14.43;;
52978;SDS011;63430;53.186;6.598;2023-04-21T10:03:50;89.75;;;84.38;;
52978;SDS011;63430;53.186;6.598;2023-04-21T10:05:55;10.65;;;8.98;;
52978;SDS011;63430;53.186;6.598;2023-04-21T10:07:58;35.45;;;32.50;;
52978;SDS011;63430;53.186;6.598;2023-04-21T10:10:05;12.52;;;10.20;;
52978;SDS011;63430;53.186;6.598;2023-04-21T10:12:11;13.23;;;12.07;;
52978;SDS011;63430;53.186;6.598;2023-04-21T10:14:14;32.20;;;30.13;;
52978;SDS011;63430;53.186;6.598;2023-04-21T10:16:17;26.45;;;24.48;;
52978;SDS011;63430;53.186;6.598;2023-04-21T10:18:20;27.30;;;24.92;;
52978;SDS011;63430;53.186;6.598;2023-04-21T10:20:24;64.00;;;60.15;;
52978;SDS011;63430;53.186;6.598;2023-04-21T10:22:27;77.90;;;73.40;;
52978;SDS011;63430;53.186;6.598;2023-04-21T10:24:31;44.40;;;41.60;;
52978;SDS011;63430;53.186;6.598;2023-04-21T10:26:42;42.28;;;39.42;;
52978;SDS011;63430;53.186;6.598;2023-04-21T10:28:45;15.52;;;11.55;;
52978;SDS011;63430;53.186;6.598;2023-04-21T10:31:02;33.00;;;30.95;;
52978;SDS011;63430;53.186;6.598;2023-04-21T10:33:22;14.70;;;13.57;;
52978;SDS011;63430;53.186;6.598;2023-04-21T10:35:25;38.88;;;36.33;;
52978;SDS011;63430;53.186;6.598;2023-04-21T10:38:05;22.10;;;20.08;;
52978;SDS011;63430;53.186;6.598;2023-04-21T10:42:47;16.58;;;15.05;;
52978;SDS011;63430;53.186;6.598;2023-04-21T10:44:51;20.95;;;19.08;;
52978;SDS011;63430;53.186;6.598;2023-04-21T10:46:56;47.83;;;44.92;;
52978;SDS011;63430;53.186;6.598;2023-04-21T10:49:05;37.83;;;35.30;;
52978;SDS011;63430;53.186;6.598;2023-04-21T10:51:09;46.88;;;44.20;;
52978;SDS011;63430;53.186;6.598;2023-04-21T10:53:15;142.73;;;134.80;;
52978;SDS011;63430;53.186;6.598;2023-04-21T10:55:17;36.00;;;33.88;;
52978;SDS011;63430;53.186;6.598;2023-04-21T10:57:21;24.90;;;23.10;;
52978;SDS011;63430;53.186;6.598;2023-04-21T10:59:26;50.97;;;47.97;;
52978;SDS011;63430;53.186;6.598;2023-04-21T11:01:29;78.45;;;74.05;;
52978;SDS011;63430;53.186;6.598;2023-04-21T11:03:32;138.23;;;131.20;;
52978;SDS011;63430;53.186;6.598;2023-04-21T11:05:38;46.88;;;44.28;;
52978;SDS011;63430;53.186;6.598;2023-04-21T11:07:42;105.30;;;100.22;;
52978;SDS011;63430;53.186;6.598;2023-04-21T11:09:45;74.95;;;71.40;;
52978;SDS011;63430;53.186;6.598;2023-04-21T11:11:56;80.35;;;76.45;;
52978;SDS011;63430;53.186;6.598;2023-04-21T11:13:59;62.78;;;59.30;;
52978;SDS011;63430;53.186;6.598;2023-04-21T11:16:07;35.90;;;33.80;;
52978;SDS011;63430;53.186;6.598;2023-04-21T11:18:09;62.60;;;59.33;;
52978;SDS011;63430;53.186;6.598;2023-04-21T11:20:12;47.83;;;45.30;;
52978;SDS011;63430;53.186;6.598;2023-04-21T11:22:15;40.15;;;37.90;;
52978;SDS011;63430;53.186;6.598;2023-04-21T11:24:18;43.08;;;40.25;;
52978;SDS011;63430;53.186;6.598;2023-04-21T11:26:31;51.78;;;48.90;;
52978;SDS011;63430;53.186;6.598;2023-04-21T11:28:35;52.03;;;49.17;;
52978;SDS011;63430;53.186;6.598;2023-04-21T11:30:37;127.15;;;120.68;;
52978;SDS011;63430;53.186;6.598;2023-04-21T11:32:44;82.90;;;78.00;;
52978;SDS011;63430;53.186;6.598;2023-04-21T11:34:47;76.93;;;72.55;;
52978;SDS011;63430;53.186;6.598;2023-04-21T11:36:50;89.43;;;84.80;;
52978;SDS011;63430;53.186;6.598;2023-04-21T11:38:54;67.72;;;64.40;;
52978;SDS011;63430;53.186;6.598;2023-04-21T11:40:56;72.20;;;68.13;;
52978;SDS011;63430;53.186;6.598;2023-04-21T11:42:59;86.68;;;81.78;;
52978;SDS011;63430;53.186;6.598;2023-04-21T11:45:07;58.78;;;55.50;;
52978;SDS011;63430;53.186;6.598;2023-04-21T11:47:20;80.00;;;75.93;;
52978;SDS011;63430;53.186;6.598;2023-04-21T11:49:28;72.93;;;69.13;;
52978;SDS011;63430;53.186;6.598;2023-04-21T11:51:34;74.93;;;71.25;;
52978;SDS011;63430;53.186;6.598;2023-04-21T11:53:37;101.00;;;95.93;;
52978;SDS011;63430;53.186;6.598;2023-04-21T11:55:43;50.65;;;47.72;;
52978;SDS011;63430;53.186;6.598;2023-04-21T11:57:46;76.57;;;72.00;;
52978;SDS011;63430;53.186;6.598;2023-04-21T11:59:52;62.97;;;59.40;;
52978;SDS011;63430;53.186;6.598;2023-04-21T12:01:54;51.88;;;49.22;;
52978;SDS011;63430;53.186;6.598;2023-04-21T12:03:57;65.47;;;62.08;;
52978;SDS011;63430;53.186;6.598;2023-04-21T12:06:03;67.25;;;63.65;;
52978;SDS011;63430;53.186;6.598;2023-04-21T12:08:11;75.38;;;71.50;;
52978;SDS011;63430;53.186;6.598;2023-04-21T12:10:17;90.10;;;85.10;;
52978;SDS011;63430;53.186;6.598;2023-04-21T12:12:22;39.05;;;36.85;;
52978;SDS011;63430;53.186;6.598;2023-04-21T12:14:28;73.72;;;70.25;;
52978;SDS011;63430;53.186;6.598;2023-04-21T12:16:35;97.88;;;93.25;;
52978;SDS011;63430;53.186;6.598;2023-04-21T12:18:38;108.50;;;103.15;;
52978;SDS011;63430;53.186;6.598;2023-04-21T12:22:52;61.10;;;57.67;;
52978;SDS011;63430;53.186;6.598;2023-04-21T12:24:56;66.47;;;63.25;;